This is the latest recevied weather packets stored in our database for station/object IW5EIJ-10. If no packets are shown the sender has not sent any weather packets the latest 1 day(s).
| Time | Temp. | Humidity | Pressure | Rain* | Wind** | Luminosity | Snow |
|---|---|---|---|---|---|---|---|
| 1778097168 | 14.44° C | 79% | 1010.5 hPa | - | - | - | - |
| 1778094772 | 15° C | 80% | 1010 hPa | - | - | - | - |
| 1778091164 | 15.56° C | 82% | 1009.4 hPa | - | - | - | - |
| 1778089963 | 15.56° C | 82% | 1009.2 hPa | - | - | - | - |
| 1778087563 | 15° C | 81% | 1009.1 hPa | - | - | - | - |
| 1778085174 | 15° C | 80% | 1008.6 hPa | - | - | - | - |
| 1778081562 | 16.11° C | 76% | 1008 hPa | - | - | - | - |
| 1778080362 | 16.67° C | 76% | 1008.1 hPa | - | - | - | - |
| 1778077962 | 17.22° C | 66% | 1008.3 hPa | - | - | - | - |
| 1778046464 | 14.44° C | 77% | 1009 hPa | - | - | - | - |
| 1778045256 | 13.89° C | 79% | 1009.1 hPa | - | - | - | - |
| 1778038055 | 13.89° C | 81% | 1009.7 hPa | - | - | - | - |
| 1778036855 | 14.44° C | 81% | 1009.4 hPa | - | - | - | - |
| 1778034455 | 13.89° C | 83% | 1009.3 hPa | - | - | - | - |
| 1778033255 | 14.44° C | 83% | 1009.2 hPa | - | - | - | - |
| 1778032060 | 14.44° C | 82% | 1009.2 hPa | - | - | - | - |
| 1778030856 | 15° C | 81% | 1009.5 hPa | - | - | - | - |
| 1778029656 | 15° C | 82% | 1009.7 hPa | - | - | - | - |
| 1778028457 | 14.44° C | 84% | 1010.1 hPa | - | - | - | - |
| 1778027256 | 14.44° C | 83% | 1010.1 hPa | - | - | - | - |
| 1778026056 | 15° C | 80% | 1010.2 hPa | - | - | - | - |
| 1778022456 | 15° C | 82% | 1010.9 hPa | - | - | - | - |
| 1778021256 | 15° C | 83% | 1011 hPa | - | - | - | - |
| 1778017653 | 14.44° C | 78% | 1011.3 hPa | - | - | - | - |
| 1778015252 | 14.44° C | 78% | 1011.7 hPa | - | - | - | - |
* Rain since midnight (hover to see other rain measurements)
** Current wind speed in m/s (hover to see current wind gust speed)